Thief River Falls, Minnesota
Current Conditions -  °F | °C
As of 1:15 PM on Friday 24 Oct 2014 (Local Time) from KTVF Reporting Station
Clear Clear  
Wind Chill: 66°   Ceiling: Unl
Heat Index: 66°   Visibility: 10mi
Dew Point: 45°   Wind: 14mph
Humidity: 46%   Direction: 230°SW
Pressure: 29.76"   Gusts: NA
Location:  48.12°N, 96.18°W
Report Text: KTVF 241815Z AUTO 23012KT 10SM CLR 19/07 A2976 RMK AO1
Loading
Personal Weather Stations






























Interactive Weather Map New forecast layout! Learn more

10-Day Weather Forecast

Advertisements
Track Severe Weather on mobile